Aviation Digital Data Service (ADDS)

Output produced by METARs form (0329 UTC 23 June 2017)
found at http://aviationweather.gov/adds/metars/
 
KLCH 222321Z 2300/2324 20013G20KT P6SM VCSH SCT025 
     TEMPO 2300/2304 BKN025 
     FM230400 18011KT P6SM VCSH BKN025 
     FM231400 20012G18KT P6SM VCTS BKN025CB